Time;durP1;ratioP1;P1;durP2;ratioP2;P2;SDS_P1;SDS_P2;PMS_P1;PMS_P2;Temp;Humidity;BMP_temperature;BMP_pressure;BME280_temperature;BME280_humidity;BME280_pressure;Samples;Min_cycle;Max_cycle;Signal;HPM_P1;HPM_P2
2022/06/25 00:00:08;;;;;;;5.60;5.10;;;22.00;99.90;;;;;;5159211;28;20902;-46
2022/06/25 00:02:38;;;;;;;7.43;6.67;;;22.10;99.90;;;;;;5180142;28;20214;-46
2022/06/25 00:05:27;;;;;;;7.37;6.60;;;22.10;99.90;;;;;;5158604;28;20881;-46
2022/06/25 00:08:00;;;;;;;6.40;5.80;;;22.00;99.90;;;;;;5163362;28;20181;-46
2022/06/25 00:10:30;;;;;;;10.50;6.40;;;22.00;99.90;;;;;;5163854;28;21027;-46
2022/06/25 00:13:01;;;;;;;5.87;5.47;;;22.00;99.90;;;;;;5179310;28;20543;-48
2022/06/25 00:15:32;;;;;;;6.87;6.17;;;22.00;99.90;;;;;;5158390;28;20173;-46
2022/06/25 00:18:02;;;;;;;9.80;6.60;;;22.00;99.90;;;;;;5162171;28;20269;-47
2022/06/25 00:20:33;;;;;;;6.60;6.10;;;22.00;99.90;;;;;;5173553;28;20192;-47
2022/06/25 00:23:04;;;;;;;9.40;6.40;;;21.90;99.90;;;;;;5154694;28;20204;-46
2022/06/25 00:25:35;;;;;;;7.50;6.83;;;21.90;99.90;;;;;;5158702;28;20620;-47
2022/06/25 00:28:06;;;;;;;11.63;7.00;;;21.90;99.90;;;;;;5163998;28;20284;-46
2022/06/25 00:30:37;;;;;;;7.70;7.10;;;21.90;99.90;;;;;;5166821;28;20230;-47
2022/06/25 00:33:08;;;;;;;7.40;6.80;;;21.80;99.90;;;;;;5166497;28;20455;-47
2022/06/25 00:35:39;;;;;;;9.90;8.43;;;21.80;99.90;;;;;;5164288;28;20436;-48
2022/06/25 00:38:09;;;;;;;10.40;9.40;;;21.70;99.90;;;;;;5162943;28;20617;-46
2022/06/25 00:40:40;;;;;;;11.40;9.70;;;21.70;99.90;;;;;;5167057;28;20192;-46
2022/06/25 00:43:10;;;;;;;10.80;9.70;;;21.60;99.90;;;;;;5161831;28;20205;-46
2022/06/25 00:45:44;;;;;;;15.47;11.87;;;21.50;99.90;;;;;;5159592;28;20582;-48
2022/06/25 00:48:15;;;;;;;17.00;12.37;;;21.50;99.90;;;;;;5163734;28;20177;-47
2022/06/25 00:50:45;;;;;;;17.80;13.80;;;21.40;99.90;;;;;;5159460;28;20494;-47
2022/06/25 00:53:19;;;;;;;21.40;15.47;;;21.30;99.90;;;;;;5152228;28;20401;-47
2022/06/25 00:55:51;;;;;;;28.20;18.27;;;21.20;99.90;;;;;;5160355;28;20588;-47
2022/06/25 00:58:25;;;;;;;36.77;21.60;;;21.10;99.90;;;;;;5166565;28;20436;-47
2022/06/25 01:00:58;;;;;;;32.50;23.90;;;21.00;99.90;;;;;;5164554;28;20476;-47
2022/06/25 01:03:30;;;;;;;31.73;22.67;;;20.90;99.90;;;;;;5158933;28;20463;-47
2022/06/25 01:06:01;;;;;;;36.13;22.43;;;20.80;99.90;;;;;;5170097;28;20435;-47
2022/06/25 01:08:35;;;;;;;36.50;24.57;;;20.80;99.90;;;;;;5166971;28;20444;-47
2022/06/25 01:11:07;;;;;;;36.90;22.63;;;20.80;99.90;;;;;;5148916;28;20963;-46
2022/06/25 01:13:38;;;;;;;35.27;22.90;;;20.80;99.90;;;;;;5162793;28;20511;-47
2022/06/25 01:16:09;;;;;;;36.03;24.50;;;20.70;99.90;;;;;;5165977;28;20455;-47
2022/06/25 01:18:39;;;;;;;34.57;23.90;;;20.60;99.90;;;;;;5166176;28;20180;-47
2022/06/25 01:21:10;;;;;;;37.30;23.67;;;20.60;99.90;;;;;;5158534;28;20718;-47
2022/06/25 01:23:41;;;;;;;33.70;22.30;;;20.60;99.90;;;;;;5193065;28;20224;-46
2022/06/25 01:26:12;;;;;;;35.27;23.37;;;20.50;99.90;;;;;;5160727;28;20634;-46
2022/06/25 01:28:42;;;;;;;37.07;22.20;;;20.50;99.90;;;;;;5172710;28;20449;-47
2022/06/25 01:31:13;;;;;;;29.47;18.83;;;20.40;99.90;;;;;;5160963;28;20202;-47
2022/06/25 01:33:43;;;;;;;33.23;20.07;;;20.40;99.90;;;;;;5157740;28;20208;-47
2022/06/25 01:36:14;;;;;;;23.53;19.30;;;20.40;99.90;;;;;;5167538;28;20177;-47
2022/06/25 01:38:45;;;;;;;28.97;17.97;;;20.30;99.90;;;;;;5187590;28;20546;-47
2022/06/25 01:41:15;;;;;;;23.63;17.77;;;20.30;99.90;;;;;;5164300;28;20265;-46
2022/06/25 01:43:46;;;;;;;30.90;17.13;;;20.30;99.90;;;;;;5163957;28;20225;-48
2022/06/25 01:46:17;;;;;;;25.30;17.83;;;20.30;99.90;;;;;;5165746;28;20272;-47
2022/06/25 01:48:48;;;;;;;17.63;14.67;;;20.30;99.90;;;;;;5197511;28;20180;-47
2022/06/25 01:51:20;;;;;;;18.43;15.90;;;20.30;99.90;;;;;;5165555;28;20215;-45
2022/06/25 01:53:50;;;;;;;25.20;15.10;;;20.20;99.90;;;;;;5182627;28;20471;-45
2022/06/25 01:56:21;;;;;;;23.73;14.73;;;20.20;99.90;;;;;;5161593;28;20432;-45
2022/06/25 01:58:51;;;;;;;22.47;15.70;;;20.20;99.90;;;;;;5165269;28;20269;-45
2022/06/25 02:01:22;;;;;;;22.83;14.87;;;20.20;99.90;;;;;;5162316;28;20553;-44
2022/06/25 02:03:53;;;;;;;17.93;14.70;;;20.10;99.90;;;;;;5159852;28;20213;-45
2022/06/25 02:06:23;;;;;;;16.47;13.73;;;20.20;99.90;;;;;;5164637;28;20197;-44
2022/06/25 02:08:54;;;;;;;17.73;14.53;;;20.10;99.90;;;;;;5197753;28;20195;-44
2022/06/25 02:11:24;;;;;;;21.10;13.63;;;20.10;99.90;;;;;;5194403;28;20208;-44
2022/06/25 02:13:55;;;;;;;17.27;14.33;;;20.10;99.90;;;;;;5162088;28;20264;-45
2022/06/25 02:16:25;;;;;;;16.00;14.33;;;20.10;99.90;;;;;;5155133;28;20174;-45
2022/06/25 02:18:56;;;;;;;18.17;15.17;;;20.00;99.90;;;;;;5165385;28;20182;-46
2022/06/25 02:21:27;;;;;;;18.10;14.87;;;20.00;99.90;;;;;;5162654;28;20553;-44
2022/06/25 02:23:57;;;;;;;16.20;12.33;;;20.00;99.90;;;;;;5169571;28;20212;-45
2022/06/25 02:26:28;;;;;;;14.93;12.20;;;20.00;99.90;;;;;;5165762;28;20193;-46
2022/06/25 02:28:58;;;;;;;16.47;13.43;;;20.00;99.90;;;;;;5189430;28;20217;-45
2022/06/25 02:31:29;;;;;;;16.20;13.10;;;20.00;99.90;;;;;;5167902;28;20677;-44
2022/06/25 02:34:00;;;;;;;21.70;12.70;;;20.00;99.90;;;;;;5164400;28;20208;-44
2022/06/25 02:36:31;;;;;;;14.97;11.87;;;20.00;99.90;;;;;;5165187;28;20436;-47
2022/06/25 02:39:02;;;;;;;17.57;13.43;;;20.00;99.90;;;;;;5159601;28;20185;-46
2022/06/25 02:41:32;;;;;;;17.70;13.17;;;20.10;99.90;;;;;;5154182;28;20204;-45
2022/06/25 02:44:03;;;;;;;14.60;13.10;;;20.10;99.90;;;;;;5154173;28;20213;-45
2022/06/25 02:46:34;;;;;;;20.00;13.97;;;20.00;99.90;;;;;;5162474;28;20192;-46
2022/06/25 02:49:04;;;;;;;17.30;14.67;;;20.10;99.90;;;;;;5144345;28;20280;-45
2022/06/25 02:51:36;;;;;;;15.40;12.97;;;20.10;99.90;;;;;;5164618;28;20212;-46
2022/06/25 02:54:07;;;;;;;18.17;14.23;;;20.10;99.90;;;;;;5192859;28;20681;-45
2022/06/25 02:59:27;;;;;;;30.00;14.90;;;20.10;99.90;;;;;;5154420;28;20239;-45
2022/06/25 03:01:57;;;;;;;15.10;13.30;;;20.10;99.90;;;;;;5154520;28;20966;-45
2022/06/25 03:04:28;;;;;;;22.60;14.50;;;20.20;99.90;;;;;;5150786;28;20212;-45
2022/06/25 03:06:58;;;;;;;17.60;13.50;;;20.20;99.90;;;;;;5162309;28;20244;-45
2022/06/25 03:09:29;;;;;;;17.83;14.70;;;20.20;99.90;;;;;;5162701;28;20220;-45
2022/06/25 03:12:00;;;;;;;15.70;13.40;;;20.20;99.90;;;;;;5147343;28;20237;-46
2022/06/25 03:14:30;;;;;;;18.13;14.13;;;20.20;99.90;;;;;;5151694;28;20673;-47
2022/06/25 03:17:01;;;;;;;22.50;15.80;;;20.20;99.90;;;;;;5164577;28;20193;-48
2022/06/25 03:19:31;;;;;;;18.00;13.63;;;20.20;99.90;;;;;;5162812;28;20193;-47
2022/06/25 03:22:03;;;;;;;18.53;13.60;;;20.20;99.90;;;;;;5158308;28;20205;-46
2022/06/25 03:24:33;;;;;;;17.23;14.30;;;20.30;99.90;;;;;;5163780;28;20692;-48
2022/06/25 03:27:04;;;;;;;20.20;14.50;;;20.30;99.90;;;;;;5156874;28;20433;-46
2022/06/25 03:29:35;;;;;;;18.30;13.53;;;20.30;99.90;;;;;;5159687;28;20212;-47
2022/06/25 03:32:06;;;;;;;16.13;14.37;;;20.30;99.90;;;;;;5159269;28;20464;-47
2022/06/25 03:34:36;;;;;;;19.80;14.97;;;20.40;99.90;;;;;;5160132;28;20626;-49
2022/06/25 03:37:07;;;;;;;21.07;15.03;;;20.40;99.90;;;;;;5159961;28;20512;-47
2022/06/25 03:39:38;;;;;;;20.07;15.10;;;20.50;99.90;;;;;;5157229;28;20202;-46
2022/06/25 03:42:08;;;;;;;20.17;14.33;;;20.50;99.90;;;;;;5191238;28;20216;-46
2022/06/25 03:44:39;;;;;;;18.63;14.93;;;20.50;99.90;;;;;;5160448;28;20211;-47
2022/06/25 03:47:09;;;;;;;20.13;14.93;;;20.50;99.90;;;;;;5163652;28;20482;-46
2022/06/25 03:49:40;;;;;;;25.87;13.50;;;20.60;99.90;;;;;;5163600;28;20205;-47
2022/06/25 03:52:11;;;;;;;19.20;13.77;;;20.60;99.90;;;;;;5191490;28;20296;-46
2022/06/25 03:54:41;;;;;;;18.83;14.80;;;20.70;99.90;;;;;;5163946;28;20564;-47
2022/06/25 03:57:12;;;;;;;14.90;13.37;;;20.70;99.90;;;;;;5158500;28;20258;-46
2022/06/25 03:59:43;;;;;;;22.93;13.43;;;20.70;99.90;;;;;;5144865;28;20209;-47
2022/06/25 04:02:13;;;;;;;17.90;14.13;;;20.80;99.90;;;;;;5147017;28;20229;-46
2022/06/25 04:04:44;;;;;;;15.07;13.40;;;20.80;99.90;;;;;;5163023;28;20185;-47
2022/06/25 04:07:14;;;;;;;17.67;14.77;;;20.90;99.90;;;;;;5164315;28;20669;-46
2022/06/25 04:09:45;;;;;;;28.60;15.50;;;21.00;99.90;;;;;;5162884;28;20213;-47
2022/06/25 04:12:16;;;;;;;18.97;15.67;;;21.00;99.90;;;;;;5155647;28;20220;-46
2022/06/25 04:14:46;;;;;;;21.20;14.60;;;21.10;99.90;;;;;;5152737;28;20201;-48
2022/06/25 04:17:17;;;;;;;23.43;16.47;;;21.20;99.90;;;;;;5163443;28;20188;-46
2022/06/25 04:19:48;;;;;;;27.53;15.80;;;21.30;99.90;;;;;;5177059;28;20335;-47
2022/06/25 04:22:18;;;;;;;24.37;16.10;;;21.50;99.90;;;;;;5163694;28;20216;-47
2022/06/25 04:24:49;;;;;;;16.30;14.57;;;21.70;99.90;;;;;;5163774;28;20192;-47
2022/06/25 04:30:09;;;;;;;20.67;16.00;;;22.10;99.90;;;;;;5156154;28;20644;-47
2022/06/25 04:32:40;;;;;;;18.60;15.30;;;22.20;99.90;;;;;;5151601;28;20467;-47
2022/06/25 04:35:10;;;;;;;15.40;12.90;;;22.20;99.90;;;;;;5145970;28;20966;-48
2022/06/25 04:37:41;;;;;;;17.60;14.00;;;22.40;99.90;;;;;;5193091;28;20204;-48
2022/06/25 04:40:12;;;;;;;20.87;16.43;;;22.50;99.90;;;;;;5161130;28;20193;-47
2022/06/25 04:42:43;;;;;;;16.03;12.93;;;22.50;99.90;;;;;;5176947;28;20312;-47
2022/06/25 04:45:13;;;;;;;14.13;12.63;;;22.50;99.90;;;;;;5178746;28;20452;-47
2022/06/25 04:47:44;;;;;;;15.97;12.30;;;22.60;99.90;;;;;;5157154;28;20201;-48
2022/06/25 04:50:15;;;;;;;17.00;12.97;;;22.70;99.90;;;;;;5155082;28;20220;-46
2022/06/25 04:52:45;;;;;;;21.57;14.47;;;22.90;99.90;;;;;;5156701;28;20314;-47
2022/06/25 04:55:16;;;;;;;15.40;13.90;;;22.90;99.90;;;;;;5159241;28;20321;-48
2022/06/25 04:57:47;;;;;;;17.70;13.50;;;22.90;99.90;;;;;;5161567;28;20190;-46
2022/06/25 05:00:17;;;;;;;15.53;12.90;;;22.90;99.90;;;;;;5177469;28;20196;-48
2022/06/25 05:02:48;;;;;;;14.10;12.60;;;23.00;99.90;;;;;;5149133;28;20335;-48
2022/06/25 05:05:19;;;;;;;15.87;12.00;;;23.80;99.90;;;;;;5164045;28;20200;-48
2022/06/25 05:07:49;;;;;;;27.10;13.07;;;24.60;99.90;;;;;;5163469;28;20194;-47
2022/06/25 05:10:20;;;;;;;16.63;11.43;;;25.70;99.90;;;;;;5162715;28;20212;-48
2022/06/25 05:15:41;;;;;;;11.83;10.53;;;28.10;99.90;;;;;;5190239;28;20196;-46
2022/06/25 05:18:12;;;;;;;12.10;10.83;;;29.30;99.10;;;;;;5159859;28;20470;-46
2022/06/25 05:20:43;;;;;;;14.20;11.27;;;29.90;91.60;;;;;;5166685;28;20440;-48
2022/06/25 05:23:14;;;;;;;12.50;10.47;;;30.90;84.40;;;;;;5165714;28;20463;-47
2022/06/25 05:25:45;;;;;;;9.47;8.60;;;32.20;71.50;;;;;;5167261;28;20185;-47
2022/06/25 05:28:16;;;;;;;14.43;10.73;;;33.40;63.00;;;;;;5165160;28;20220;-47
2022/06/25 05:30:47;;;;;;;10.57;9.57;;;33.60;57.20;;;;;;5169024;28;20254;-47
2022/06/25 05:33:18;;;;;;;9.75;8.75;;;33.40;56.80;;;;;;5162329;28;20204;-47
2022/06/25 05:35:49;;;;;;;8.30;7.28;;;33.60;55.10;;;;;;5162048;28;20533;-48
2022/06/25 05:38:19;;;;;;;17.20;7.80;;;34.00;54.90;;;;;;5158105;28;20605;-47
2022/06/25 05:40:50;;;;;;;11.40;9.10;;;35.10;51.40;;;;;;5162342;28;20192;-47
2022/06/25 05:43:22;;;;;;;9.80;7.63;;;36.10;47.70;;;;;;5162838;28;20201;-48
2022/06/25 05:45:53;;;;;;;9.73;7.75;;;36.40;46.10;;;;;;5166959;28;20180;-48
2022/06/25 05:48:23;;;;;;;7.85;7.15;;;37.10;45.50;;;;;;5167644;28;20279;-48
2022/06/25 05:50:54;;;;;;;10.20;9.25;;;38.40;42.60;;;;;;5194467;28;20216;-47
2022/06/25 05:53:25;;;;;;;9.18;7.63;;;39.30;39.30;;;;;;5163107;28;20272;-46
2022/06/25 05:55:56;;;;;;;11.45;8.85;;;39.50;38.60;;;;;;5161088;28;20240;-45
2022/06/25 05:58:27;;;;;;;8.25;7.38;;;39.00;39.00;;;;;;5162661;28;20189;-46
2022/06/25 06:00:57;;;;;;;7.25;6.55;;;38.90;38.70;;;;;;5163518;28;20596;-45
2022/06/25 06:03:28;;;;;;;10.32;9.32;;;37.80;39.70;;;;;;5157731;28;20201;-45
2022/06/25 06:05:58;;;;;;;13.02;11.15;;;36.20;41.90;;;;;;5163174;28;20195;-46
2022/06/25 06:08:29;;;;;;;13.02;8.18;;;34.40;44.70;;;;;;5166858;28;20719;-45
2022/06/25 06:10:59;;;;;;;10.10;9.20;;;34.60;45.70;;;;;;5180191;28;20225;-47
2022/06/25 06:13:31;;;;;;;12.27;8.95;;;36.00;44.10;;;;;;5164835;28;20224;-47
2022/06/25 06:16:02;;;;;;;9.43;8.52;;;36.70;41.50;;;;;;5158887;28;20223;-54
2022/06/25 06:18:33;;;;;;;10.40;8.27;;;37.20;41.20;;;;;;5158078;28;20308;-50
2022/06/25 06:21:03;;;;;;;7.90;6.82;;;38.80;39.40;;;;;;5181386;28;20211;-46
2022/06/25 06:23:34;;;;;;;8.15;7.55;;;40.10;37.30;;;;;;5161937;28;20212;-47
2022/06/25 06:26:04;;;;;;;12.43;10.40;;;40.30;36.10;;;;;;5163382;28;20184;-45
2022/06/25 06:28:35;;;;;;;10.65;8.30;;;37.80;37.90;;;;;;5162302;28;20263;-49
2022/06/25 06:31:06;;;;;;;12.55;10.48;;;36.00;41.60;;;;;;5158327;28;20244;-47
2022/06/25 06:33:37;;;;;;;21.85;12.43;;;35.30;43.70;;;;;;5160515;28;20255;-48
2022/06/25 06:36:07;;;;;;;13.45;11.35;;;34.50;45.60;;;;;;5158710;28;20212;-48
2022/06/25 06:38:38;;;;;;;13.77;9.90;;;33.90;46.10;;;;;;5163856;28;20224;-48
2022/06/25 06:41:09;;;;;;;14.00;11.03;;;33.90;46.70;;;;;;5161804;28;20637;-48
2022/06/25 06:43:40;;;;;;;11.20;10.20;;;33.20;47.70;;;;;;5164997;28;20212;-47
2022/06/25 06:46:13;;;;;;;13.53;12.03;;;32.60;48.90;;;;;;5165827;28;20201;-47
2022/06/25 06:48:43;;;;;;;16.83;11.10;;;33.10;49.10;;;;;;5191805;28;20660;-48
2022/06/25 06:51:14;;;;;;;12.20;11.10;;;34.40;46.20;;;;;;5161123;28;20271;-47
2022/06/25 06:53:44;;;;;;;14.50;12.30;;;34.10;46.60;;;;;;5163846;28;20217;-47
2022/06/25 06:56:15;;;;;;;13.90;12.20;;;33.70;46.80;;;;;;5157378;28;20215;-46
2022/06/25 06:58:46;;;;;;;15.03;10.40;;;34.10;46.20;;;;;;5160947;28;20184;-48
2022/06/25 07:01:17;;;;;;;14.50;12.40;;;34.60;45.60;;;;;;5193650;28;20696;-47
2022/06/25 07:03:47;;;;;;;15.50;12.93;;;34.40;45.10;;;;;;5176078;28;20303;-47
2022/06/25 07:06:18;;;;;;;16.23;12.67;;;33.80;46.10;;;;;;5162563;28;20184;-48
2022/06/25 07:08:49;;;;;;;12.77;11.40;;;32.80;47.80;;;;;;5189739;28;20192;-47
2022/06/25 07:11:28;;;;;;;15.10;12.40;;;31.60;50.10;;;;;;5155571;28;20209;-47
2022/06/25 07:14:01;;;;;;;21.23;14.27;;;30.30;52.70;;;;;;5153351;28;20208;-46
2022/06/25 07:16:34;;;;;;;17.60;14.10;;;29.40;56.30;;;;;;5194767;28;20456;-47
2022/06/25 07:19:04;;;;;;;17.70;13.73;;;28.40;57.60;;;;;;5187517;28;20452;-46
2022/06/25 07:21:35;;;;;;;19.47;14.97;;;27.70;59.80;;;;;;5156850;28;20468;-47
2022/06/25 07:24:06;;;;;;;22.07;13.63;;;27.20;62.40;;;;;;5162333;28;20266;-47
2022/06/25 07:26:36;;;;;;;18.77;14.80;;;27.00;64.30;;;;;;5180603;28;20190;-48
2022/06/25 07:29:07;;;;;;;19.87;14.60;;;27.00;65.40;;;;;;5162462;28;20447;-46
2022/06/25 07:31:38;;;;;;;28.50;13.60;;;26.80;67.90;;;;;;5160808;28;20215;-47
2022/06/25 07:34:08;;;;;;;18.60;15.13;;;26.80;70.30;;;;;;5164357;28;20212;-49
2022/06/25 07:36:39;;;;;;;21.17;16.23;;;26.80;72.80;;;;;;5163677;28;20280;-47
2022/06/25 07:39:10;;;;;;;19.00;15.00;;;26.50;75.80;;;;;;5165184;28;20193;-47
2022/06/25 07:41:40;;;;;;;15.00;13.40;;;26.30;80.50;;;;;;5161503;28;20207;-47
2022/06/25 07:44:12;;;;;;;22.60;16.80;;;26.70;82.10;;;;;;5162077;28;20198;-47
2022/06/25 07:46:42;;;;;;;18.17;15.23;;;27.30;79.20;;;;;;5160371;28;20189;-47
2022/06/25 07:49:13;;;;;;;16.83;14.33;;;27.60;77.10;;;;;;5171509;28;20428;-47
2022/06/25 07:51:56;;;;;;;18.93;14.87;;;27.90;75.70;;;;;;5155254;28;20223;-48
2022/06/25 07:54:29;;;;;;;14.83;13.10;;;28.00;75.20;;;;;;5197926;23;20502;-52
2022/06/25 07:56:59;;;;;;;22.67;14.73;;;28.60;73.00;;;;;;5199612;28;20430;-51
2022/06/25 07:59:30;;;;;;;16.33;11.20;;;29.60;68.10;;;;;;5203971;28;20491;-51
2022/06/25 08:02:00;;;;;;;17.30;13.40;;;30.90;64.30;;;;;;5194038;28;20263;-50
2022/06/25 08:04:31;;;;;;;16.53;12.83;;;33.10;56.50;;;;;;5171780;28;20295;-51
2022/06/25 08:07:03;;;;;;;11.90;10.27;;;34.30;50.80;;;;;;5181405;28;20183;-50
2022/06/25 08:09:34;;;;;;;26.07;11.83;;;34.80;49.50;;;;;;5178442;28;20190;-52
2022/06/25 08:12:05;;;;;;;13.20;11.00;;;35.70;46.70;;;;;;5175272;28;20210;-51
2022/06/25 08:14:35;;;;;;;17.07;12.50;;;35.40;46.30;;;;;;5177324;28;20299;-50
2022/06/25 08:17:06;;;;;;;10.85;9.15;;;35.70;45.50;;;;;;5181846;28;20211;-52
2022/06/25 08:19:37;;;;;;;9.95;8.95;;;36.60;43.80;;;;;;5184177;28;20192;-51
2022/06/25 08:22:07;;;;;;;11.25;10.10;;;37.10;43.30;;;;;;5185242;28;20547;-51
2022/06/25 08:24:38;;;;;;;11.93;10.05;;;37.50;41.30;;;;;;5185164;28;20218;-50
2022/06/25 08:27:10;;;;;;;9.50;8.60;;;37.20;40.90;;;;;;5180077;28;20721;-51
2022/06/25 08:29:40;;;;;;;11.73;10.57;;;36.10;42.30;;;;;;5177904;28;20224;-51
2022/06/25 08:32:11;;;;;;;11.70;9.15;;;34.40;44.00;;;;;;5181310;28;20212;-51
2022/06/25 08:34:41;;;;;;;11.17;10.03;;;33.10;46.40;;;;;;5176887;28;20200;-51
2022/06/25 08:37:12;;;;;;;11.20;10.10;;;31.90;48.60;;;;;;5175974;28;20184;-51
2022/06/25 08:39:43;;;;;;;14.60;11.10;;;31.20;50.60;;;;;;5184021;28;20223;-51
2022/06/25 08:42:13;;;;;;;10.70;9.20;;;30.50;52.20;;;;;;5164018;28;20605;-50
2022/06/25 08:44:44;;;;;;;9.47;8.47;;;30.40;53.00;;;;;;5177663;28;20257;-50
2022/06/25 08:47:14;;;;;;;14.40;10.57;;;31.80;50.80;;;;;;5170227;28;20195;-51
2022/06/25 08:49:45;;;;;;;9.10;8.23;;;32.30;48.80;;;;;;5180690;28;20207;-51
2022/06/25 08:52:18;;;;;;;7.03;6.33;;;32.80;48.10;;;;;;5182534;28;20259;-51
2022/06/25 08:54:50;;;;;;;12.07;8.47;;;33.20;48.00;;;;;;5181335;28;20630;-51
2022/06/25 08:57:21;;;;;;;7.07;6.53;;;33.40;46.80;;;;;;5181680;28;20604;-50
2022/06/25 08:59:54;;;;;;;8.97;7.97;;;33.20;47.10;;;;;;5187380;28;20198;-51
2022/06/25 09:02:24;;;;;;;8.40;7.53;;;32.90;46.50;;;;;;5186432;28;20220;-50
2022/06/25 09:04:55;;;;;;;6.57;6.10;;;32.20;47.80;;;;;;5180729;28;20214;-51
2022/06/25 09:07:25;;;;;;;7.97;6.90;;;31.70;49.10;;;;;;5187047;28;20675;-51
2022/06/25 09:09:56;;;;;;;7.53;6.57;;;31.50;49.80;;;;;;5172235;28;20295;-51
2022/06/25 09:12:27;;;;;;;7.17;6.50;;;31.50;50.00;;;;;;5177688;28;20184;-50
2022/06/25 09:14:57;;;;;;;7.10;6.50;;;31.90;49.30;;;;;;5187608;28;20184;-52
2022/06/25 09:17:28;;;;;;;7.20;6.50;;;32.10;48.90;;;;;;5189242;28;20176;-50
2022/06/25 09:20:00;;;;;;;6.77;6.17;;;32.20;48.70;;;;;;5185387;28;20685;-51
2022/06/25 09:22:31;;;;;;;10.83;6.50;;;32.10;49.30;;;;;;5188056;28;20208;-50
2022/06/25 09:25:02;;;;;;;18.50;8.03;;;32.10;49.80;;;;;;5189356;28;20271;-50
2022/06/25 09:27:36;;;;;;;8.10;7.30;;;32.10;49.10;;;;;;5185487;28;20288;-51
2022/06/25 09:30:12;;;;;;;7.03;6.33;;;31.90;49.30;;;;;;5177442;28;20210;-51
2022/06/25 09:32:45;;;;;;;6.03;5.43;;;31.80;49.80;;;;;;5181326;28;20204;-52
2022/06/25 09:35:37;;;;;;;8.40;7.60;;;32.00;49.80;;;;;;5172364;28;20193;-51
2022/06/25 09:38:19;;;;;;;8.00;7.03;;;31.60;48.60;;;;;;5182816;28;20188;-51
2022/06/25 09:40:54;;;;;;;7.80;6.80;;;31.50;49.70;;;;;;5186162;28;20199;-51
2022/06/25 09:43:27;;;;;;;6.80;6.10;;;31.70;49.40;;;;;;5180479;28;20223;-50
2022/06/25 09:46:05;;;;;;;8.03;5.67;;;31.50;49.90;;;;;;5180661;28;20197;-52
2022/06/25 09:48:36;;;;;;;9.90;7.90;;;31.60;49.40;;;;;;5186476;28;20207;-50
2022/06/25 09:51:14;;;;;;;10.10;8.07;;;31.50;49.70;;;;;;5180005;28;20253;-50
2022/06/25 09:53:55;;;;;;;9.10;7.60;;;31.20;50.20;;;;;;5182275;28;20208;-52
2022/06/25 09:56:28;;;;;;;9.30;7.20;;;30.80;50.80;;;;;;5192551;28;20190;-50
2022/06/25 09:59:00;;;;;;;7.53;6.83;;;30.80;51.60;;;;;;5174233;28;20191;-51
2022/06/25 10:01:32;;;;;;;8.10;7.40;;;30.70;51.60;;;;;;5178326;28;20199;-51
2022/06/25 10:04:04;;;;;;;21.23;7.90;;;29.90;52.80;;;;;;5182980;28;20455;-51
2022/06/25 10:06:38;;;;;;;6.30;5.70;;;29.30;54.30;;;;;;5185175;28;20972;-51
2022/06/25 10:09:09;;;;;;;8.07;7.37;;;28.90;55.40;;;;;;5181297;28;20894;-50
2022/06/25 10:11:40;;;;;;;7.70;7.10;;;28.50;56.30;;;;;;5176978;28;20789;-51
2022/06/25 10:14:12;;;;;;;8.30;7.20;;;28.30;57.10;;;;;;5178619;28;20465;-52
2022/06/25 10:16:43;;;;;;;7.00;6.20;;;28.30;57.30;;;;;;5179845;28;20244;-52
2022/06/25 10:19:17;;;;;;;6.60;5.87;;;28.60;57.50;;;;;;5183529;28;20486;-52
2022/06/25 10:21:47;;;;;;;9.30;6.87;;;29.20;56.30;;;;;;5178963;28;20435;-49
2022/06/25 10:24:19;;;;;;;13.20;7.37;;;29.40;54.80;;;;;;5183984;28;22709;-50
2022/06/25 10:26:50;;;;;;;8.13;6.60;;;29.20;55.00;;;;;;5178107;28;20248;-51
2022/06/25 10:29:25;;;;;;;13.00;6.73;;;29.20;55.40;;;;;;5178866;28;20824;-51
2022/06/25 10:32:15;;;;;;;6.03;5.57;;;29.20;55.40;;;;;;5175396;28;20458;-51
2022/06/25 10:34:58;;;;;;;5.97;5.60;;;29.20;55.00;;;;;;5159606;28;20537;-52
2022/06/25 10:37:58;;;;;;;9.77;6.17;;;29.20;55.30;;;;;;5180729;28;20802;-51
2022/06/25 10:40:30;;;;;;;8.73;5.30;;;29.20;55.20;;;;;;5179155;28;20442;-51
2022/06/25 10:43:03;;;;;;;7.40;5.57;;;29.30;55.20;;;;;;5184074;28;20459;-51
2022/06/25 10:45:34;;;;;;;5.47;4.97;;;29.60;54.00;;;;;;5183999;28;20938;-51
2022/06/25 10:48:05;;;;;;;6.47;5.40;;;29.60;53.50;;;;;;5184842;28;20554;-52
2022/06/25 10:50:36;;;;;;;7.37;5.60;;;29.80;53.70;;;;;;5184790;28;20216;-51
2022/06/25 10:53:09;;;;;;;7.00;5.00;;;30.00;52.80;;;;;;5182928;28;20212;-51
2022/06/25 10:55:59;;;;;;;5.87;5.43;;;30.50;52.50;;;;;;5182484;28;20453;-53
2022/06/25 10:58:44;;;;;;;4.63;4.20;;;30.90;51.00;;;;;;5184211;28;20628;-51
2022/06/25 11:01:19;;;;;;;5.87;5.10;;;30.60;51.20;;;;;;5182673;28;20879;-52
2022/06/25 11:03:56;;;;;;;5.53;5.13;;;30.30;52.20;;;;;;5169191;28;20477;-52
2022/06/25 11:06:30;;;;;;;6.40;5.80;;;29.70;53.30;;;;;;5185558;28;20446;-52
2022/06/25 11:09:14;;;;;;;6.30;5.80;;;29.20;54.30;;;;;;5173932;28;20919;-50
2022/06/25 11:11:47;;;;;;;9.67;5.97;;;28.60;55.90;;;;;;5181139;28;20493;-51
2022/06/25 11:14:21;;;;;;;4.93;4.50;;;28.30;56.50;;;;;;5181530;28;20460;-52
2022/06/25 11:16:53;;;;;;;6.40;5.80;;;28.20;56.50;;;;;;5180225;28;20472;-51
2022/06/25 11:19:24;;;;;;;5.43;4.80;;;28.00;57.10;;;;;;5177556;28;20438;-52
2022/06/25 11:21:55;;;;;;;5.43;4.97;;;28.00;57.20;;;;;;5183366;28;20435;-53
2022/06/25 11:24:28;;;;;;;9.90;5.53;;;28.10;57.40;;;;;;5164089;28;20421;-50
2022/06/25 11:29:52;;;;;;;5.57;5.07;;;28.70;56.50;;;;;;5180067;28;20514;-51
2022/06/25 11:32:27;;;;;;;11.37;4.63;;;28.80;55.50;;;;;;5177343;28;20880;-51
2022/06/25 11:34:59;;;;;;;4.57;4.27;;;28.60;55.60;;;;;;5180059;28;20445;-51
2022/06/25 11:37:30;;;;;;;6.93;6.33;;;28.70;55.70;;;;;;5165505;28;20458;-51
2022/06/25 11:40:01;;;;;;;6.67;6.00;;;28.90;55.40;;;;;;5177160;28;20454;-51
2022/06/25 11:42:32;;;;;;;5.30;4.90;;;29.00;54.90;;;;;;5179071;28;20817;-50
2022/06/25 11:45:03;;;;;;;6.77;5.80;;;28.90;54.80;;;;;;5174797;28;20296;-51
2022/06/25 11:47:35;;;;;;;6.13;5.53;;;29.00;54.90;;;;;;5177205;28;20483;-52
2022/06/25 11:50:08;;;;;;;7.43;6.67;;;28.80;55.10;;;;;;5180092;28;20570;-51
2022/06/25 11:52:43;;;;;;;5.57;5.00;;;28.80;55.30;;;;;;5172401;28;20475;-52
2022/06/25 11:55:13;;;;;;;5.40;4.87;;;28.80;54.80;;;;;;5179975;28;20442;-51
2022/06/25 11:57:44;;;;;;;5.73;5.20;;;29.10;54.70;;;;;;5178452;28;20484;-52
2022/06/25 12:00:15;;;;;;;6.97;5.40;;;29.30;53.90;;;;;;5177821;28;20180;-51
2022/06/25 12:02:45;;;;;;;6.53;6.00;;;29.40;53.70;;;;;;5178518;28;20290;-51
2022/06/25 12:05:16;;;;;;;6.23;5.73;;;29.50;53.90;;;;;;5174288;28;20668;-52
2022/06/25 12:07:46;;;;;;;6.73;5.50;;;29.40;53.80;;;;;;5177260;28;20214;-52
2022/06/25 12:10:17;;;;;;;6.30;5.80;;;29.20;54.10;;;;;;5175127;28;20541;-51
2022/06/25 12:12:48;;;;;;;6.87;5.83;;;29.00;54.60;;;;;;5162635;28;20200;-51
2022/06/25 12:15:27;;;;;;;5.70;5.23;;;29.10;54.90;;;;;;5174143;28;20197;-51
2022/06/25 12:18:05;;;;;;;5.20;4.80;;;29.10;54.80;;;;;;5175891;28;20438;-50
2022/06/25 12:20:55;;;;;;;6.63;5.27;;;29.20;54.60;;;;;;5179636;28;20434;-52
2022/06/25 12:23:25;;;;;;;6.97;6.30;;;29.20;53.90;;;;;;5181617;28;20553;-52
2022/06/25 12:25:56;;;;;;;6.00;5.40;;;29.30;55.00;;;;;;5184657;28;20458;-51
2022/06/25 12:28:35;;;;;;;6.40;5.77;;;29.50;55.40;;;;;;5185501;28;20183;-50
2022/06/25 12:31:10;;;;;;;8.40;6.60;;;29.70;54.50;;;;;;5185289;28;20207;-51
2022/06/25 12:33:51;;;;;;;6.57;6.00;;;29.90;54.10;;;;;;5183830;28;20472;-49
2022/06/25 12:36:24;;;;;;;5.30;4.83;;;30.10;54.30;;;;;;5180499;28;20784;-50
2022/06/25 12:38:54;;;;;;;22.03;5.90;;;30.20;53.10;;;;;;5176846;28;20450;-50
2022/06/25 12:41:44;;;;;;;5.97;5.57;;;30.10;53.40;;;;;;5183904;28;20439;-51
2022/06/25 12:44:17;;;;;;;8.90;6.77;;;29.90;52.80;;;;;;5191667;28;20215;-52
2022/06/25 12:47:05;;;;;;;9.97;7.13;;;29.70;53.60;;;;;;5184313;28;20195;-50
2022/06/25 12:49:43;;;;;;;14.60;7.00;;;29.70;53.50;;;;;;5183051;28;20830;-53
2022/06/25 12:52:23;;;;;;;7.27;6.67;;;29.50;53.10;;;;;;5183797;28;20469;-51
2022/06/25 12:54:56;;;;;;;7.27;6.50;;;29.10;54.20;;;;;;5187475;28;20454;-51
2022/06/25 12:57:29;;;;;;;7.00;6.33;;;29.20;55.00;;;;;;5189462;28;20430;-50
2022/06/25 13:00:23;;;;;;;7.43;6.63;;;29.30;55.00;;;;;;5190287;28;20431;-50
2022/06/25 13:02:54;;;;;;;9.57;6.83;;;29.60;54.90;;;;;;5197506;28;20467;-53
2022/06/25 13:05:24;;;;;;;7.77;7.07;;;29.90;53.50;;;;;;5189017;28;20454;-50
2022/06/25 13:07:55;;;;;;;11.93;8.67;;;29.90;53.30;;;;;;5186460;28;20291;-50
2022/06/25 13:10:26;;;;;;;9.53;6.80;;;30.00;53.70;;;;;;5184619;28;20219;-50